createdAt,value
2023-04-15T00:00:56.946Z,4.10
2023-04-15T00:01:57.943Z,3.40
2023-04-15T00:02:58.520Z,3.80
2023-04-15T00:03:59.096Z,3.10
2023-04-15T00:04:59.938Z,3.60
2023-04-15T00:06:00.789Z,3.60
2023-04-15T00:07:01.665Z,3.90
2023-04-15T00:08:02.573Z,3.90
2023-04-15T00:09:03.582Z,4.30
2023-04-15T00:10:04.030Z,4.10
2023-04-15T00:11:04.909Z,6.10
2023-04-15T00:12:05.778Z,6.60
2023-04-15T00:13:06.657Z,5.30
2023-04-15T00:14:07.589Z,7.40
2023-04-15T00:15:08.431Z,3.90
2023-04-15T00:16:09.305Z,3.90
2023-04-15T00:17:10.199Z,4.10
2023-04-15T00:18:11.066Z,5.00
2023-04-15T00:19:12.128Z,6.40
2023-04-15T00:20:12.542Z,5.90
2023-04-15T00:21:13.391Z,4.60
2023-04-15T00:22:14.260Z,7.30
2023-04-15T00:23:15.139Z,7.90
2023-04-15T00:24:16.019Z,7.10
2023-04-15T00:25:16.908Z,8.90
2023-04-15T00:26:17.813Z,6.70
2023-04-15T00:27:18.661Z,6.60
2023-04-15T00:28:19.535Z,19.40
2023-04-15T00:29:20.426Z,5.40
2023-04-15T00:30:21.302Z,5.40
2023-04-15T00:31:22.216Z,5.00
2023-04-15T00:32:23.114Z,4.90
2023-04-15T00:33:24.006Z,4.70
2023-04-15T00:34:24.879Z,4.20
2023-04-15T00:35:25.768Z,5.20
2023-04-15T00:36:26.632Z,3.90
2023-04-15T00:37:27.535Z,4.00
2023-04-15T00:38:28.380Z,3.40
2023-04-15T00:39:29.271Z,22.00
2023-04-15T00:40:30.155Z,3.60
2023-04-15T00:41:31.023Z,3.00
2023-04-15T00:42:31.902Z,2.50
2023-04-15T00:43:32.841Z,4.30
2023-04-15T00:44:33.687Z,6.80
2023-04-15T00:45:34.594Z,26.30
2023-04-15T00:46:35.433Z,2.50
2023-04-15T00:47:36.340Z,2.90
2023-04-15T00:48:37.192Z,3.90
2023-04-15T00:49:38.130Z,3.70
2023-04-15T00:50:39.030Z,2.60
2023-04-15T00:51:39.851Z,2.40
2023-04-15T00:52:40.856Z,4.90
2023-04-15T00:53:41.287Z,4.70
2023-04-15T00:54:42.170Z,3.80
2023-04-15T00:55:43.083Z,2.70
2023-04-15T00:56:43.926Z,4.20
2023-04-15T00:57:44.814Z,3.10
2023-04-15T00:58:45.673Z,3.00
2023-04-15T00:59:46.577Z,3.50
2023-04-15T01:00:47.450Z,4.50
2023-04-15T01:01:48.478Z,3.00
2023-04-15T01:02:48.982Z,3.30
2023-04-15T01:03:50.059Z,3.30
2023-04-15T01:04:50.591Z,3.80
2023-04-15T01:05:51.479Z,2.40
2023-04-15T01:06:52.342Z,3.30
2023-04-15T01:07:53.266Z,2.50
2023-04-15T01:08:54.093Z,5.70
2023-04-15T01:09:54.986Z,4.00
2023-04-15T01:10:55.875Z,3.50
2023-04-15T01:11:56.772Z,3.90
2023-04-15T01:12:57.616Z,3.50
2023-04-15T01:13:58.529Z,3.20
2023-04-15T01:14:59.399Z,2.10
2023-04-15T01:16:00.303Z,4.70
2023-04-15T01:17:01.145Z,2.60
2023-04-15T01:18:02.041Z,2.50
2023-04-15T01:19:03.164Z,2.60
2023-04-15T01:20:03.710Z,4.00
2023-04-15T01:21:04.571Z,6.60
2023-04-15T01:22:05.423Z,3.70
2023-04-15T01:23:06.315Z,2.70
2023-04-15T01:24:07.183Z,2.90
2023-04-15T01:25:08.060Z,2.90
2023-04-15T01:26:08.981Z,4.60
2023-04-15T01:27:09.837Z,4.50
2023-04-15T01:28:10.703Z,5.40
2023-04-15T01:29:11.593Z,5.00
2023-04-15T01:30:12.459Z,3.60
2023-04-15T01:31:13.455Z,3.20
2023-04-15T01:32:13.901Z,2.20
2023-04-15T01:33:14.743Z,2.20
2023-04-15T01:34:15.642Z,1.80
2023-04-15T01:35:16.523Z,3.30
2023-04-15T01:36:17.427Z,3.70
2023-04-15T01:37:18.288Z,3.40
2023-04-15T01:38:19.168Z,3.00
2023-04-15T01:39:20.049Z,3.50
2023-04-15T01:40:20.933Z,3.20
2023-04-15T01:41:21.815Z,2.80
2023-04-15T01:42:22.712Z,4.90
2023-04-15T01:43:23.575Z,3.60
2023-04-15T01:44:24.451Z,3.20
2023-04-15T01:45:25.339Z,4.70
2023-04-15T01:46:26.241Z,2.00
2023-04-15T01:47:27.122Z,5.20
2023-04-15T01:48:27.974Z,2.50
2023-04-15T01:49:28.849Z,3.10
2023-04-15T01:50:29.745Z,1.90
2023-04-15T01:51:30.633Z,2.30
2023-04-15T01:52:31.484Z,3.90
2023-04-15T01:53:32.367Z,2.30
2023-04-15T01:54:33.251Z,3.90
2023-04-15T01:55:34.138Z,4.80
2023-04-15T01:56:35.034Z,2.50
2023-04-15T01:57:35.895Z,4.30
2023-04-15T01:58:36.766Z,2.20
2023-04-15T01:59:37.648Z,5.40
2023-04-15T02:00:38.556Z,2.40
2023-04-15T02:01:39.416Z,1.50
2023-04-15T02:02:40.404Z,2.00
2023-04-15T02:03:40.927Z,2.60
2023-04-15T02:04:41.350Z,2.50
2023-04-15T02:05:42.240Z,2.20
2023-04-15T02:06:43.136Z,1.20
2023-04-15T02:07:44.001Z,2.60
2023-04-15T02:08:44.872Z,4.00
2023-04-15T02:09:45.394Z,1.50
2023-04-15T02:10:46.284Z,2.30
2023-04-15T02:11:47.180Z,4.00
2023-04-15T02:12:48.044Z,5.20
2023-04-15T02:13:48.921Z,2.30
2023-04-15T02:14:49.850Z,3.40
2023-04-15T02:15:50.726Z,4.60
2023-04-15T02:16:51.744Z,4.90
2023-04-15T02:17:52.190Z,6.90
2023-04-15T02:18:53.057Z,7.50
2023-04-15T02:19:53.988Z,6.80
2023-04-15T02:20:54.841Z,5.10
2023-04-15T02:21:55.728Z,4.70
2023-04-15T02:22:56.588Z,5.00
2023-04-15T02:23:57.461Z,3.90
2023-04-15T02:24:58.330Z,4.40
2023-04-15T02:25:59.271Z,2.30
2023-04-15T02:27:00.133Z,3.30
2023-04-15T02:28:00.997Z,2.40
2023-04-15T02:29:01.989Z,2.60
2023-04-15T02:30:02.448Z,3.90
2023-04-15T02:31:03.327Z,2.30
2023-04-15T02:32:04.363Z,4.00
2023-04-15T02:33:04.768Z,2.10
2023-04-15T02:34:05.644Z,2.70
2023-04-15T02:35:06.523Z,4.00
2023-04-15T02:36:07.414Z,4.00
2023-04-15T02:37:08.454Z,3.10
2023-04-15T02:38:09.297Z,2.20
2023-04-15T02:39:10.142Z,2.40
2023-04-15T02:40:11.023Z,4.40
2023-04-15T02:41:11.905Z,2.00
2023-04-15T02:42:12.782Z,2.90
2023-04-15T02:43:13.652Z,3.70
2023-04-15T02:44:14.584Z,3.50
2023-04-15T02:45:15.421Z,3.70
2023-04-15T02:46:16.365Z,4.10
2023-04-15T02:47:17.192Z,2.70
2023-04-15T02:48:18.101Z,3.20
2023-04-15T02:49:18.946Z,4.60
2023-04-15T02:50:19.862Z,4.30
2023-04-15T02:51:20.736Z,2.30
2023-04-15T02:52:21.627Z,3.30
2023-04-15T02:53:22.481Z,2.20
2023-04-15T02:54:23.356Z,2.60
2023-04-15T02:55:24.225Z,2.30
2023-04-15T02:56:25.168Z,2.20
2023-04-15T02:57:26.010Z,4.40
2023-04-15T02:58:26.887Z,3.10
2023-04-15T02:59:27.759Z,2.70
2023-04-15T03:00:28.635Z,1.80
2023-04-15T03:01:29.527Z,1.70
2023-04-15T03:02:30.536Z,1.10
2023-04-15T03:03:31.440Z,3.90
2023-04-15T03:04:32.306Z,1.60
2023-04-15T03:05:33.179Z,1.80
2023-04-15T03:06:34.066Z,2.10
2023-04-15T03:07:34.967Z,2.80
2023-04-15T03:08:35.851Z,2.70
2023-04-15T03:09:36.713Z,2.00
2023-04-15T03:10:37.589Z,2.00
2023-04-15T03:11:38.470Z,3.60
2023-04-15T03:12:39.357Z,1.70
2023-04-15T03:13:40.228Z,1.70
2023-04-15T03:14:41.151Z,1.60
2023-04-15T03:15:42.074Z,1.70
2023-04-15T03:16:42.969Z,3.10
2023-04-15T03:17:43.853Z,2.40
2023-04-15T03:18:44.729Z,3.50
2023-04-15T03:19:45.604Z,2.00
2023-04-15T03:20:46.638Z,1.40
2023-04-15T03:21:47.019Z,0.90
2023-04-15T03:22:47.938Z,1.80
2023-04-15T03:23:48.771Z,2.60
2023-04-15T03:24:49.651Z,3.40
2023-04-15T03:25:50.531Z,1.50
2023-04-15T03:26:51.464Z,2.40
2023-04-15T03:27:52.308Z,3.20
2023-04-15T03:28:53.246Z,1.70
2023-04-15T03:29:54.067Z,1.60
2023-04-15T03:30:54.979Z,2.70
2023-04-15T03:31:55.828Z,2.60
2023-04-15T03:32:56.785Z,1.50
2023-04-15T03:33:57.603Z,1.40
2023-04-15T03:34:58.505Z,3.40
2023-04-15T03:35:59.382Z,2.10
2023-04-15T03:37:00.263Z,1.70
2023-04-15T03:38:01.162Z,2.70
2023-04-15T03:39:02.291Z,2.30
2023-04-15T03:40:02.852Z,1.00
2023-04-15T03:41:03.753Z,1.30
2023-04-15T03:42:04.635Z,2.30
2023-04-15T03:43:05.519Z,4.30
2023-04-15T03:44:06.405Z,2.20
2023-04-15T03:45:07.340Z,5.00
2023-04-15T03:46:08.200Z,3.00
2023-04-15T03:47:09.079Z,1.00
2023-04-15T03:48:17.349Z,2.70
2023-04-15T03:49:11.700Z,2.10
2023-04-15T03:50:11.584Z,2.00
2023-04-15T03:51:12.141Z,3.30
2023-04-15T03:52:12.980Z,2.20
2023-04-15T03:53:13.881Z,4.20
2023-04-15T03:54:14.730Z,3.30
2023-04-15T03:55:15.608Z,2.50
2023-04-15T03:56:16.506Z,2.00
2023-04-15T03:57:17.421Z,2.10
2023-04-15T03:58:18.272Z,2.80
2023-04-15T03:59:19.157Z,3.90
2023-04-15T04:00:20.043Z,3.20
2023-04-15T04:01:20.977Z,1.80
2023-04-15T04:02:21.938Z,3.80
2023-04-15T04:03:22.692Z,2.30
2023-04-15T04:04:23.358Z,1.70
2023-04-15T04:05:23.816Z,2.40
2023-04-15T04:06:24.709Z,3.10
2023-04-15T04:07:25.584Z,2.90
2023-04-15T04:08:26.480Z,5.10
2023-04-15T04:09:27.399Z,1.60
2023-04-15T04:10:28.226Z,2.10
2023-04-15T04:11:29.115Z,2.30
2023-04-15T04:12:29.995Z,2.40
2023-04-15T04:13:30.829Z,2.40
2023-04-15T04:14:31.692Z,2.80
2023-04-15T04:15:32.645Z,17.70
2023-04-15T04:16:33.509Z,23.40
2023-04-15T04:17:34.350Z,15.00
2023-04-15T04:18:35.152Z,13.00
2023-04-15T04:19:35.962Z,4.80
2023-04-15T04:20:36.810Z,3.60
2023-04-15T04:21:37.744Z,4.50
2023-04-15T04:22:38.600Z,3.40
2023-04-15T04:23:39.489Z,3.20
2023-04-15T04:24:40.296Z,2.90
2023-04-15T04:25:41.135Z,2.70
2023-04-15T04:26:41.975Z,1.70
2023-04-15T04:27:42.901Z,2.80
2023-04-15T04:28:43.663Z,4.00
2023-04-15T04:29:44.486Z,4.60
2023-04-15T04:30:45.304Z,5.40
2023-04-15T04:31:46.180Z,1.50
2023-04-15T04:32:47.011Z,1.40
2023-04-15T04:33:47.879Z,4.40
2023-04-15T04:34:48.657Z,2.10
2023-04-15T04:35:49.478Z,4.00
2023-04-15T04:36:50.322Z,4.60
2023-04-15T04:37:51.160Z,3.70
2023-04-15T04:38:52.007Z,3.10
2023-04-15T04:39:52.792Z,2.20
2023-04-15T04:40:53.670Z,2.90
2023-04-15T04:41:54.518Z,4.50
2023-04-15T04:42:55.346Z,3.80
2023-04-15T04:43:56.164Z,3.30
2023-04-15T04:44:56.988Z,2.60
2023-04-15T04:45:57.835Z,3.10
2023-04-15T04:46:58.716Z,2.30
2023-04-15T04:47:59.605Z,2.50
2023-04-15T04:49:00.537Z,2.40
2023-04-15T04:50:01.400Z,3.50
2023-04-15T04:51:02.223Z,3.90
2023-04-15T04:52:03.047Z,3.50
2023-04-15T04:53:03.916Z,2.20
2023-04-15T04:54:04.736Z,1.80
2023-04-15T04:55:05.553Z,2.50
2023-04-15T04:56:06.359Z,2.70
2023-04-15T04:57:07.191Z,4.10
2023-04-15T04:58:08.023Z,4.70
2023-04-15T04:59:08.886Z,4.60
2023-04-15T05:00:09.704Z,3.10
2023-04-15T05:01:10.630Z,10.50
2023-04-15T05:02:11.508Z,4.90
2023-04-15T05:03:12.477Z,2.90
2023-04-15T05:04:12.981Z,4.40
2023-04-15T05:05:13.859Z,3.90
2023-04-15T05:06:14.650Z,3.00
2023-04-15T05:07:15.501Z,2.40
2023-04-15T05:08:16.334Z,5.10
2023-04-15T05:09:17.168Z,5.20
2023-04-15T05:10:17.989Z,4.20
2023-04-15T05:11:18.845Z,5.00
2023-04-15T05:12:19.640Z,6.40
2023-04-15T05:13:20.467Z,16.30
2023-04-15T05:14:22.928Z,12.20
2023-04-15T05:15:22.180Z,7.90
2023-04-15T05:16:23.146Z,4.10
2023-04-15T05:17:23.663Z,5.70
2023-04-15T05:18:24.447Z,4.50
2023-04-15T05:19:25.255Z,3.40
2023-04-15T05:20:26.075Z,2.60
2023-04-15T05:21:26.912Z,3.00
2023-04-15T05:22:27.742Z,3.00
2023-04-15T05:23:28.606Z,3.50
2023-04-15T05:24:29.430Z,2.60
2023-04-15T05:25:30.228Z,3.60
2023-04-15T05:26:31.054Z,3.00
2023-04-15T05:27:31.922Z,1.40
2023-04-15T05:28:32.752Z,2.90
2023-04-15T05:29:33.602Z,4.20
2023-04-15T05:30:34.399Z,3.60
2023-04-15T05:31:35.329Z,1.50
2023-04-15T05:32:36.203Z,2.20
2023-04-15T05:33:36.979Z,1.00
2023-04-15T05:34:37.802Z,5.20
2023-04-15T05:35:38.663Z,2.90
2023-04-15T05:36:39.457Z,3.30
2023-04-15T05:37:40.287Z,3.20
2023-04-15T05:38:41.109Z,4.60
2023-04-15T05:39:41.955Z,3.00
2023-04-15T05:40:42.749Z,2.80
2023-04-15T05:41:43.606Z,4.10
2023-04-15T05:42:44.418Z,2.00
2023-04-15T05:43:45.240Z,3.90
2023-04-15T05:44:46.057Z,3.80
2023-04-15T05:45:46.932Z,3.80
2023-04-15T05:46:47.701Z,1.80
2023-04-15T05:47:48.720Z,1.90
2023-04-15T05:48:49.512Z,3.70
2023-04-15T05:49:50.338Z,3.90
2023-04-15T05:50:51.160Z,2.10
2023-04-15T05:51:51.992Z,3.00
2023-04-15T05:52:52.819Z,5.20
2023-04-15T05:53:53.679Z,2.90
2023-04-15T05:54:54.497Z,2.30
2023-04-15T05:55:55.290Z,3.50
2023-04-15T05:56:56.103Z,3.90
2023-04-15T05:57:56.935Z,2.80
2023-04-15T05:58:57.754Z,4.00
2023-04-15T05:59:58.620Z,4.20
2023-04-15T06:00:59.413Z,3.70
2023-04-15T06:02:00.252Z,3.80
2023-04-15T06:03:01.127Z,3.40
2023-04-15T06:04:02.093Z,3.70
2023-04-15T06:05:02.962Z,5.10
2023-04-15T06:06:03.927Z,4.70
2023-04-15T06:07:04.718Z,5.40
2023-04-15T06:08:05.554Z,4.90
2023-04-15T06:09:06.372Z,3.40
2023-04-15T06:10:07.240Z,2.40
2023-04-15T06:11:08.014Z,4.20
2023-04-15T06:12:08.861Z,4.90
2023-04-15T06:13:09.715Z,2.90
2023-04-15T06:14:10.506Z,2.30
2023-04-15T06:15:11.326Z,2.10
2023-04-15T06:16:12.188Z,2.70
2023-04-15T06:17:12.975Z,2.70
2023-04-15T06:18:13.885Z,5.70
2023-04-15T06:19:14.939Z,1.90
2023-04-15T06:20:15.240Z,2.00
2023-04-15T06:21:16.059Z,4.60
2023-04-15T06:22:16.883Z,1.50
2023-04-15T06:23:17.706Z,2.50
2023-04-15T06:24:18.577Z,2.80
2023-04-15T06:25:19.387Z,1.80
2023-04-15T06:26:20.192Z,3.70
2023-04-15T06:27:21.017Z,2.00
2023-04-15T06:28:21.852Z,1.70
2023-04-15T06:29:22.669Z,3.40
2023-04-15T06:30:24.499Z,2.50
2023-04-15T06:31:24.341Z,2.10
2023-04-15T06:32:25.184Z,2.10
2023-04-15T06:33:25.989Z,3.00
2023-04-15T06:34:26.795Z,2.40
2023-04-15T06:35:27.614Z,2.10
2023-04-15T06:36:28.487Z,2.10
2023-04-15T06:37:29.276Z,3.80
2023-04-15T06:38:30.108Z,3.00
2023-04-15T06:39:30.925Z,2.90
2023-04-15T06:40:31.771Z,2.60
2023-04-15T06:41:32.585Z,3.00
2023-04-15T06:42:33.450Z,2.00
2023-04-15T06:43:34.239Z,2.40
2023-04-15T06:44:35.065Z,5.00
2023-04-15T06:45:35.954Z,2.20
2023-04-15T06:46:36.743Z,4.00
2023-04-15T06:47:37.709Z,3.80
2023-04-15T06:48:39.046Z,4.00
2023-04-15T06:49:39.338Z,4.00
2023-04-15T06:50:40.181Z,3.50
2023-04-15T06:51:40.996Z,2.90
2023-04-15T06:52:41.828Z,2.30
2023-04-15T06:53:42.662Z,1.90
2023-04-15T06:54:43.528Z,4.90
2023-04-15T06:55:44.342Z,2.20
2023-04-15T06:56:45.151Z,1.40
2023-04-15T06:57:45.964Z,3.90
2023-04-15T06:58:46.787Z,1.60
2023-04-15T06:59:47.613Z,5.20
2023-04-15T07:00:48.458Z,2.50
2023-04-15T07:01:49.342Z,3.90
2023-04-15T07:02:50.190Z,4.70
2023-04-15T07:03:51.004Z,4.60
2023-04-15T07:04:51.801Z,2.60
2023-04-15T07:05:52.624Z,3.80
2023-04-15T07:06:53.444Z,2.40
2023-04-15T07:07:54.305Z,5.00
2023-04-15T07:08:55.134Z,2.80
2023-04-15T07:09:55.950Z,1.90
2023-04-15T07:10:56.794Z,2.60
2023-04-15T07:11:57.593Z,3.50
2023-04-15T07:12:58.426Z,2.80
2023-04-15T07:13:59.291Z,2.70
2023-04-15T07:15:00.101Z,4.10
2023-04-15T07:16:00.915Z,2.80
2023-04-15T07:17:01.791Z,3.30
2023-04-15T07:18:02.631Z,2.10
2023-04-15T07:19:03.775Z,3.30
2023-04-15T07:20:04.333Z,1.50
2023-04-15T07:21:05.149Z,1.90
2023-04-15T07:22:05.971Z,3.20
2023-04-15T07:23:06.783Z,3.30
2023-04-15T07:24:07.651Z,3.10
2023-04-15T07:25:08.470Z,2.80
2023-04-15T07:26:09.353Z,3.10
2023-04-15T07:27:10.139Z,1.70
2023-04-15T07:28:10.952Z,3.40
2023-04-15T07:29:11.793Z,4.60
2023-04-15T07:30:12.643Z,4.00
2023-04-15T07:31:13.460Z,2.60
2023-04-15T07:32:14.336Z,1.70
2023-04-15T07:33:15.119Z,3.30
2023-04-15T07:34:15.946Z,3.20
2023-04-15T07:35:16.836Z,4.40
2023-04-15T07:36:17.636Z,3.30
2023-04-15T07:37:18.462Z,3.00
2023-04-15T07:38:19.324Z,2.80
2023-04-15T07:39:20.490Z,1.90
2023-04-15T07:40:20.807Z,2.00
2023-04-15T07:41:21.786Z,3.30
2023-04-15T07:42:22.542Z,1.70
2023-04-15T07:43:23.373Z,4.80
2023-04-15T07:44:24.234Z,2.10
2023-04-15T07:45:25.038Z,2.30
2023-04-15T07:46:25.888Z,0.90
2023-04-15T07:47:26.788Z,2.80
2023-04-15T07:48:27.542Z,4.20
2023-04-15T07:49:28.376Z,3.80
2023-04-15T07:50:29.240Z,6.00
2023-04-15T07:51:30.038Z,3.30
2023-04-15T07:52:30.843Z,4.80
2023-04-15T07:53:31.672Z,2.20
2023-04-15T07:54:32.506Z,2.10
2023-04-15T07:55:33.337Z,4.40
2023-04-15T07:56:34.197Z,3.50
2023-04-15T07:57:34.990Z,2.00
2023-04-15T07:58:35.809Z,2.70
2023-04-15T07:59:36.653Z,1.50
2023-04-15T08:00:37.464Z,2.50
2023-04-15T08:01:38.328Z,2.40
2023-04-15T08:02:40.473Z,5.70
2023-04-15T08:03:40.119Z,2.50
2023-04-15T08:04:40.790Z,2.60
2023-04-15T08:05:41.210Z,1.20
2023-04-15T08:06:42.040Z,1.00
2023-04-15T08:07:42.888Z,1.90
2023-04-15T08:08:43.688Z,3.70
2023-04-15T08:09:44.518Z,1.20
2023-04-15T08:10:45.336Z,1.50
2023-04-15T08:11:46.187Z,1.80
2023-04-15T08:12:46.980Z,1.70
2023-04-15T08:13:47.820Z,1.90
2023-04-15T08:14:48.635Z,2.20
2023-04-15T08:15:49.515Z,4.60
2023-04-15T08:16:50.313Z,3.70
2023-04-15T08:17:51.284Z,2.50
2023-04-15T08:18:52.140Z,1.80
2023-04-15T08:19:52.986Z,2.90
2023-04-15T08:20:53.783Z,2.30
2023-04-15T08:21:54.710Z,2.10
2023-04-15T08:22:55.485Z,2.40
2023-04-15T08:23:56.321Z,2.30
2023-04-15T08:24:57.138Z,1.50
2023-04-15T08:25:57.982Z,2.90
2023-04-15T08:26:58.817Z,2.90
2023-04-15T08:27:59.623Z,2.50
2023-04-15T08:29:00.759Z,3.70
2023-04-15T08:30:04.213Z,1.80
2023-04-15T08:31:02.203Z,2.00
2023-04-15T08:32:03.050Z,2.60
2023-04-15T08:33:03.837Z,2.70
2023-04-15T08:34:04.669Z,3.80
2023-04-15T08:35:05.525Z,2.50
2023-04-15T08:36:06.347Z,3.70
2023-04-15T08:37:07.185Z,3.40
2023-04-15T08:38:08.039Z,3.60
2023-04-15T08:39:08.840Z,4.90
2023-04-15T08:40:09.660Z,4.40
2023-04-15T08:41:10.473Z,2.60
2023-04-15T08:42:11.327Z,2.60
2023-04-15T08:43:12.135Z,3.70
2023-04-15T08:44:13.029Z,3.50
2023-04-15T08:45:13.831Z,4.60
2023-04-15T08:46:14.654Z,3.50
2023-04-15T08:47:15.469Z,1.70
2023-04-15T08:48:16.299Z,3.70
2023-04-15T08:49:17.111Z,10.50
2023-04-15T08:50:17.987Z,7.80
2023-04-15T08:51:18.791Z,7.40
2023-04-15T08:52:19.615Z,7.40
2023-04-15T08:53:20.431Z,9.20
2023-04-15T08:54:21.249Z,6.00
2023-04-15T08:55:22.084Z,3.60
2023-04-15T08:56:22.937Z,3.40
2023-04-15T08:57:23.752Z,6.00
2023-04-15T08:58:24.550Z,4.00
2023-04-15T08:59:25.380Z,6.40
2023-04-15T09:00:26.204Z,5.40
2023-04-15T09:01:27.098Z,2.50
2023-04-15T09:02:28.000Z,3.10
2023-04-15T09:03:28.972Z,3.10
2023-04-15T09:04:29.792Z,3.20
2023-04-15T09:05:30.624Z,4.20
2023-04-15T09:06:31.442Z,3.30
2023-04-15T09:07:32.302Z,2.90
2023-04-15T09:08:33.104Z,3.70
2023-04-15T09:09:33.918Z,3.00
2023-04-15T09:10:34.739Z,3.50
2023-04-15T09:11:35.579Z,4.00
2023-04-15T09:12:36.527Z,2.40
2023-04-15T09:13:37.317Z,4.60
2023-04-15T09:14:38.173Z,5.10
2023-04-15T09:15:39.009Z,2.40
2023-04-15T09:16:39.807Z,3.90
2023-04-15T09:17:40.675Z,3.20
2023-04-15T09:18:41.454Z,3.10
2023-04-15T09:19:42.280Z,7.70
2023-04-15T09:20:43.152Z,3.90
2023-04-15T09:21:43.959Z,3.60
2023-04-15T09:22:44.766Z,3.10
2023-04-15T09:23:45.590Z,2.90
2023-04-15T09:24:46.407Z,4.10
2023-04-15T09:25:47.240Z,3.70
2023-04-15T09:26:48.085Z,7.50
2023-04-15T09:27:48.904Z,8.20
2023-04-15T09:28:49.704Z,5.70
2023-04-15T09:29:50.528Z,5.50
2023-04-15T09:30:51.395Z,4.50
2023-04-15T09:31:52.190Z,3.90
2023-04-15T09:32:53.066Z,7.70
2023-04-15T09:33:53.836Z,9.10
2023-04-15T09:34:54.651Z,7.90
2023-04-15T09:35:55.497Z,6.40
2023-04-15T09:36:56.325Z,9.20
2023-04-15T09:37:57.133Z,7.50
2023-04-15T09:38:57.990Z,6.00
2023-04-15T09:39:58.781Z,8.50
2023-04-15T09:40:59.604Z,7.60
2023-04-15T09:42:00.430Z,7.30
2023-04-15T09:43:01.293Z,5.80
2023-04-15T09:44:02.256Z,6.20
2023-04-15T09:45:02.677Z,5.90
2023-04-15T09:46:03.534Z,8.10
2023-04-15T09:47:04.317Z,6.60
2023-04-15T09:48:05.191Z,9.60
2023-04-15T09:49:05.967Z,5.90
2023-04-15T09:50:06.794Z,7.00
2023-04-15T09:51:07.656Z,8.10
2023-04-15T09:52:08.535Z,8.80
2023-04-15T09:53:09.356Z,9.60
2023-04-15T09:54:10.176Z,10.00
2023-04-15T09:55:10.996Z,9.60
2023-04-15T09:56:11.841Z,10.50
2023-04-15T09:57:12.717Z,5.60
2023-04-15T09:58:13.539Z,10.20
2023-04-15T09:59:14.328Z,8.40
2023-04-15T10:00:15.189Z,6.80
2023-04-15T10:01:16.020Z,5.00
2023-04-15T10:02:16.875Z,4.80
2023-04-15T10:03:17.941Z,3.10
2023-04-15T10:04:18.524Z,5.60
2023-04-15T10:05:18.918Z,5.00
2023-04-15T10:06:19.757Z,3.90
2023-04-15T10:07:20.646Z,5.00
2023-04-15T10:08:21.447Z,5.20
2023-04-15T10:09:22.292Z,2.90
2023-04-15T10:10:23.093Z,3.80
2023-04-15T10:11:23.921Z,3.10
2023-04-15T10:12:24.746Z,2.30
2023-04-15T10:13:25.575Z,3.80
2023-04-15T10:14:26.369Z,1.60
2023-04-15T10:15:27.206Z,3.00
2023-04-15T10:16:28.081Z,3.40
2023-04-15T10:17:31.146Z,3.90
2023-04-15T10:18:29.513Z,3.70
2023-04-15T10:19:30.328Z,2.50
2023-04-15T10:20:31.157Z,2.30
2023-04-15T10:21:32.034Z,2.10
2023-04-15T10:22:32.886Z,2.50
2023-04-15T10:23:33.666Z,2.40
2023-04-15T10:24:34.520Z,1.70
2023-04-15T10:25:35.304Z,3.20
2023-04-15T10:26:36.143Z,1.70
2023-04-15T10:27:37.073Z,1.90
2023-04-15T10:28:37.866Z,2.90
2023-04-15T10:29:38.670Z,4.50
2023-04-15T10:30:39.510Z,4.00
2023-04-15T10:31:40.365Z,5.00
2023-04-15T10:32:41.185Z,2.50
2023-04-15T10:33:41.980Z,2.10
2023-04-15T10:34:42.806Z,3.30
2023-04-15T10:35:43.628Z,3.10
2023-04-15T10:36:44.463Z,2.80
2023-04-15T10:37:45.278Z,2.00
2023-04-15T10:38:46.130Z,3.50
2023-04-15T10:39:46.940Z,2.80
2023-04-15T10:40:47.774Z,3.40
2023-04-15T10:41:48.604Z,1.70
2023-04-15T10:42:49.439Z,2.80
2023-04-15T10:43:50.263Z,5.10
2023-04-15T10:44:51.086Z,8.90
2023-04-15T10:45:51.891Z,8.00
2023-04-15T10:46:52.767Z,11.20
2023-04-15T10:47:53.565Z,12.30
2023-04-15T10:48:54.394Z,9.60
2023-04-15T10:49:55.198Z,8.90
2023-04-15T10:50:56.066Z,5.70
2023-04-15T10:51:56.868Z,19.90
2023-04-15T10:52:57.696Z,22.90
2023-04-15T10:53:58.502Z,17.70
2023-04-15T10:54:59.329Z,33.20
2023-04-15T10:56:00.166Z,27.40
2023-04-15T10:57:01.025Z,27.50
2023-04-15T10:58:01.823Z,16.90
2023-04-15T10:59:02.668Z,9.20
2023-04-15T11:00:03.467Z,6.20
2023-04-15T11:01:04.359Z,4.20
2023-04-15T11:02:05.241Z,4.50
2023-04-15T11:03:06.193Z,4.30
2023-04-15T11:04:06.984Z,3.50
2023-04-15T11:05:07.546Z,3.60
2023-04-15T11:06:08.371Z,1.50
2023-04-15T11:07:09.197Z,2.70
2023-04-15T11:08:10.012Z,9.50
2023-04-15T11:09:10.893Z,28.60
2023-04-15T11:10:11.695Z,45.40
2023-04-15T11:11:12.506Z,15.20
2023-04-15T11:12:13.326Z,4.30
2023-04-15T11:13:14.150Z,3.10
2023-04-15T11:14:14.986Z,2.20
2023-04-15T11:15:15.821Z,4.10
2023-04-15T11:16:16.644Z,3.80
2023-04-15T11:17:17.456Z,3.10
2023-04-15T11:18:18.277Z,7.40
2023-04-15T11:19:19.101Z,3.60
2023-04-15T11:20:19.924Z,1.80
2023-04-15T11:21:20.774Z,2.80
2023-04-15T11:22:21.594Z,1.60
2023-04-15T11:23:22.408Z,2.60
2023-04-15T11:24:23.226Z,3.10
2023-04-15T11:25:24.063Z,3.30
2023-04-15T11:26:24.889Z,2.80
2023-04-15T11:27:25.743Z,1.90
2023-04-15T11:28:26.544Z,4.50
2023-04-15T11:29:27.392Z,7.80
2023-04-15T11:30:28.187Z,5.60
2023-04-15T11:31:29.067Z,3.30
2023-04-15T11:32:29.853Z,2.60
2023-04-15T11:33:30.818Z,1.50
2023-04-15T11:34:31.612Z,2.70
2023-04-15T11:35:32.429Z,2.50
2023-04-15T11:36:33.265Z,2.80
2023-04-15T11:37:34.078Z,2.50
2023-04-15T11:38:34.912Z,2.80
2023-04-15T11:39:35.743Z,3.20
2023-04-15T11:40:36.557Z,2.30
2023-04-15T11:41:37.385Z,4.90
2023-04-15T11:42:49.195Z,5.30
2023-04-15T11:43:39.945Z,3.00
2023-04-15T11:44:39.759Z,5.50
2023-04-15T11:45:40.612Z,2.70
2023-04-15T11:46:41.402Z,6.50
2023-04-15T11:47:42.259Z,10.90
2023-04-15T11:48:43.048Z,27.70
2023-04-15T11:49:43.873Z,27.80
2023-04-15T11:50:44.692Z,22.20
2023-04-15T11:51:45.549Z,12.50
2023-04-15T11:52:46.352Z,15.00
2023-04-15T11:53:47.181Z,17.80
2023-04-15T11:54:47.993Z,15.30
2023-04-15T11:55:48.812Z,13.60
2023-04-15T11:56:49.643Z,12.00
2023-04-15T11:57:50.486Z,19.20
2023-04-15T11:58:51.304Z,15.70
2023-04-15T11:59:52.140Z,13.10
2023-04-15T12:00:52.965Z,11.70
2023-04-15T12:01:53.806Z,6.30
2023-04-15T12:02:54.684Z,7.60
2023-04-15T12:03:55.580Z,3.40
2023-04-15T12:04:56.430Z,2.80
2023-04-15T12:05:57.220Z,5.50
2023-04-15T12:06:58.048Z,2.70
2023-04-15T12:07:58.890Z,4.70
2023-04-15T12:08:59.692Z,4.10
2023-04-15T12:10:00.534Z,2.20
2023-04-15T12:11:01.384Z,1.70
2023-04-15T12:12:02.186Z,2.80
2023-04-15T12:13:03.128Z,2.80
2023-04-15T12:14:04.148Z,1.60
2023-04-15T12:15:04.540Z,4.90
2023-04-15T12:16:05.430Z,3.60
2023-04-15T12:17:06.274Z,4.10
2023-04-15T12:18:07.116Z,6.10
2023-04-15T12:19:08.033Z,5.60
2023-04-15T12:20:08.859Z,5.40
2023-04-15T12:21:09.684Z,6.00
2023-04-15T12:22:10.531Z,7.60
2023-04-15T12:23:11.344Z,5.00
2023-04-15T12:24:12.169Z,3.70
2023-04-15T12:25:12.990Z,4.00
2023-04-15T12:26:13.801Z,4.00
2023-04-15T12:27:14.651Z,6.30
2023-04-15T12:28:15.496Z,3.80
2023-04-15T12:29:16.298Z,3.40
2023-04-15T12:30:17.139Z,4.80
2023-04-15T12:31:17.970Z,3.00
2023-04-15T12:32:18.815Z,4.70
2023-04-15T12:33:19.592Z,1.50
2023-04-15T12:34:20.441Z,2.80
2023-04-15T12:35:21.249Z,2.60
2023-04-15T12:36:22.076Z,5.30
2023-04-15T12:37:22.906Z,3.50
2023-04-15T12:38:23.729Z,2.60
2023-04-15T12:39:24.570Z,2.00
2023-04-15T12:40:25.413Z,2.20
2023-04-15T12:41:26.212Z,3.70
2023-04-15T12:42:27.046Z,9.00
2023-04-15T12:43:27.866Z,7.60
2023-04-15T12:44:28.698Z,10.20
2023-04-15T12:45:30.013Z,7.70
2023-04-15T12:46:30.392Z,5.70
2023-04-15T12:47:31.190Z,8.80
2023-04-15T12:48:31.995Z,3.10
2023-04-15T12:49:32.950Z,5.00
2023-04-15T12:50:33.740Z,9.40
2023-04-15T12:51:34.558Z,5.00
2023-04-15T12:52:35.427Z,9.90
2023-04-15T12:53:36.232Z,9.40
2023-04-15T12:54:37.058Z,7.80
2023-04-15T12:55:37.879Z,7.80
2023-04-15T12:56:38.701Z,10.20
2023-04-15T12:57:39.526Z,9.80
2023-04-15T12:58:40.384Z,10.60
2023-04-15T12:59:41.186Z,8.60
2023-04-15T13:00:42.027Z,7.20
2023-04-15T13:01:42.883Z,5.20
2023-04-15T13:02:43.833Z,4.00
2023-04-15T13:03:44.817Z,3.80
2023-04-15T13:04:45.305Z,4.10
2023-04-15T13:05:46.092Z,4.50
2023-04-15T13:06:46.917Z,5.70
2023-04-15T13:07:47.745Z,22.30
2023-04-15T13:08:58.480Z,18.20
2023-04-15T13:09:50.284Z,15.10
2023-04-15T13:10:50.128Z,32.00
2023-04-15T13:11:50.947Z,18.10
2023-04-15T13:12:51.787Z,45.90
2023-04-15T13:13:52.618Z,42.80
2023-04-15T13:14:53.430Z,27.60
2023-04-15T13:15:54.325Z,14.60
2023-04-15T13:16:55.131Z,12.70
2023-04-15T13:17:56.046Z,10.80
2023-04-15T13:18:56.831Z,13.80
2023-04-15T13:19:57.652Z,11.40
2023-04-15T13:20:58.496Z,10.20
2023-04-15T13:21:59.320Z,13.20
2023-04-15T13:23:00.148Z,11.00
2023-04-15T13:24:00.973Z,11.90
2023-04-15T13:25:01.799Z,5.10
2023-04-15T13:26:02.630Z,4.20
2023-04-15T13:27:03.464Z,4.30
2023-04-15T13:28:04.323Z,6.00